createdAt,value
2023-03-22T00:01:47.878Z,96616.72
2023-03-22T00:04:14.582Z,96616.06
2023-03-22T00:06:41.431Z,96620.75
2023-03-22T00:09:08.100Z,96624.25
2023-03-22T00:11:34.764Z,96619.25
2023-03-22T00:14:01.567Z,96618.13
2023-03-22T00:16:28.385Z,96632.44
2023-03-22T00:18:55.277Z,96632.47
2023-03-22T00:21:22.066Z,96628.69
2023-03-22T00:23:48.796Z,96626.88
2023-03-22T00:26:15.738Z,96618.13
2023-03-22T00:28:42.839Z,96604.34
2023-03-22T00:31:10.804Z,96587.16
2023-03-22T00:33:38.368Z,96626.44
2023-03-22T00:36:10.811Z,96624.03
2023-03-22T00:38:42.938Z,96618.44
2023-03-22T00:41:16.127Z,96609.69
2023-03-22T00:43:46.069Z,96619.13
2023-03-22T00:46:14.434Z,96606.66
2023-03-22T00:48:41.250Z,96599.91
2023-03-22T00:51:09.139Z,96603.88
2023-03-22T00:53:39.925Z,96606.16
2023-03-22T00:56:09.682Z,96601.88
2023-03-22T00:58:44.567Z,96586.72
2023-03-22T01:01:14.147Z,96594.91
2023-03-22T01:03:42.817Z,96594.22
2023-03-22T01:06:11.443Z,96566.66
2023-03-22T01:08:39.187Z,96569.06
2023-03-22T01:11:07.260Z,96598.66
2023-03-22T01:13:37.486Z,96589.44
2023-03-22T01:16:05.828Z,96582.38
2023-03-22T01:18:33.578Z,96600.03
2023-03-22T01:21:00.464Z,96584.78
2023-03-22T01:23:27.998Z,96588.44
2023-03-22T01:25:54.797Z,96590.81
2023-03-22T01:28:21.568Z,96587.50
2023-03-22T01:30:48.334Z,96586.59
2023-03-22T01:33:15.445Z,96562.13
2023-03-22T01:35:42.268Z,96577.03
2023-03-22T01:38:10.115Z,96575.75
2023-03-22T01:40:43.689Z,96572.13
2023-03-22T01:43:15.737Z,96573.34
2023-03-22T01:45:46.785Z,96569.63
2023-03-22T01:48:28.091Z,96563.69
2023-03-22T01:51:10.354Z,96559.72
2023-03-22T01:53:55.152Z,96545.88
2023-03-22T01:56:25.637Z,96564.75
2023-03-22T01:58:55.040Z,96564.06
2023-03-22T02:01:28.469Z,96564.84
2023-03-22T02:04:08.289Z,96562.13
2023-03-22T02:06:40.329Z,96569.28
2023-03-22T02:09:22.146Z,96565.41
2023-03-22T02:12:06.866Z,96558.50
2023-03-22T02:15:10.899Z,96551.31
2023-03-22T02:18:21.476Z,96547.34
2023-03-22T02:20:58.212Z,96551.44
2023-03-22T02:23:46.588Z,96553.25
2023-03-22T02:26:31.811Z,96543.94
2023-03-22T02:29:27.367Z,96553.59
2023-03-22T02:32:21.615Z,96546.56
2023-03-22T02:35:15.790Z,96557.47
2023-03-22T02:38:07.329Z,96554.72
2023-03-22T02:41:01.909Z,96546.41
2023-03-22T02:43:46.241Z,96551.28
2023-03-22T02:46:22.877Z,96538.28
2023-03-22T02:49:23.779Z,96553.97
2023-03-22T02:52:25.936Z,96555.09
2023-03-22T02:55:08.098Z,96540.13
2023-03-22T02:57:52.792Z,96558.19
2023-03-22T03:00:20.180Z,96557.75
2023-03-22T03:02:55.741Z,96534.31
2023-03-22T03:05:25.248Z,96554.81
2023-03-22T03:07:57.276Z,96551.72
2023-03-22T03:10:26.991Z,96556.31
2023-03-22T03:12:53.835Z,96539.25
2023-03-22T03:15:21.913Z,96555.41
2023-03-22T03:18:17.334Z,96553.44
2023-03-22T03:21:00.430Z,96558.16
2023-03-22T03:23:31.275Z,96556.78
2023-03-22T03:26:16.283Z,96558.09
2023-03-22T03:29:02.040Z,96556.72
2023-03-22T03:31:37.083Z,96538.31
2023-03-22T03:34:15.559Z,96551.34
2023-03-22T03:36:48.251Z,96544.41
2023-03-22T03:39:16.532Z,96542.66
2023-03-22T03:41:48.236Z,96552.13
2023-03-22T03:44:16.842Z,96537.56
2023-03-22T03:46:45.971Z,96558.97
2023-03-22T03:49:14.139Z,96500.50
2023-03-22T03:51:52.399Z,96551.78
2023-03-22T03:54:20.296Z,96563.81
2023-03-22T03:56:47.800Z,96541.66
2023-03-22T03:59:18.800Z,96562.28
2023-03-22T04:01:51.589Z,96560.66
2023-03-22T04:04:29.026Z,96524.81
2023-03-22T04:07:02.686Z,96563.81
2023-03-22T04:09:32.816Z,96556.84
2023-03-22T04:12:12.039Z,96558.75
2023-03-22T04:14:38.587Z,96538.41
2023-03-22T04:17:13.669Z,96546.56
2023-03-22T04:19:41.356Z,96532.28
2023-03-22T04:22:14.460Z,96522.25
2023-03-22T04:24:41.557Z,96559.16
2023-03-22T04:27:08.377Z,96557.34
2023-03-22T04:29:56.545Z,96557.97
2023-03-22T04:32:42.781Z,96554.88
2023-03-22T04:35:10.899Z,96542.72
2023-03-22T04:37:37.528Z,96532.31
2023-03-22T04:40:17.403Z,96550.97
2023-03-22T04:42:57.537Z,96554.00
2023-03-22T04:45:35.111Z,96553.00
2023-03-22T04:48:04.451Z,96530.13
2023-03-22T04:50:32.320Z,96541.72
2023-03-22T04:53:03.157Z,96545.47
2023-03-22T04:55:30.634Z,96550.50
2023-03-22T04:57:57.586Z,96555.28
2023-03-22T05:00:24.351Z,96542.56
2023-03-22T05:02:51.895Z,96546.72
2023-03-22T05:05:31.256Z,96551.97
2023-03-22T05:08:00.290Z,96526.81
2023-03-22T05:10:26.937Z,96543.78
2023-03-22T05:12:53.884Z,96553.72
2023-03-22T05:15:23.594Z,96557.53
2023-03-22T05:17:51.591Z,96561.38
2023-03-22T05:20:18.196Z,96553.63
2023-03-22T05:22:50.943Z,96563.94
2023-03-22T05:25:19.246Z,96555.91
2023-03-22T05:27:46.096Z,96565.06
2023-03-22T05:30:31.668Z,96547.47
2023-03-22T05:33:04.738Z,96543.00
2023-03-22T05:35:38.991Z,96555.31
2023-03-22T05:38:07.769Z,96547.41
2023-03-22T05:40:36.600Z,96535.03
2023-03-22T05:43:03.161Z,96549.25
2023-03-22T05:45:32.393Z,96557.47
2023-03-22T05:48:07.826Z,96569.41
2023-03-22T05:50:35.278Z,96561.84
2023-03-22T05:53:03.413Z,96559.69
2023-03-22T05:55:42.606Z,96554.97
2023-03-22T05:58:10.862Z,96567.00
2023-03-22T06:00:40.112Z,96545.63
2023-03-22T06:03:25.632Z,96552.78
2023-03-22T06:05:57.716Z,96551.56
2023-03-22T06:08:38.594Z,96560.59
2023-03-22T06:11:06.350Z,96519.56
2023-03-22T06:13:33.190Z,96549.53
2023-03-22T06:16:02.442Z,96565.22
2023-03-22T06:18:30.291Z,96558.97
2023-03-22T06:21:03.490Z,96547.47
2023-03-22T06:23:29.966Z,96563.59
2023-03-22T06:25:56.516Z,96539.47
2023-03-22T06:28:23.492Z,96557.31
2023-03-22T06:30:53.212Z,96547.81
2023-03-22T06:33:32.758Z,96548.16
2023-03-22T06:36:06.244Z,96558.34
2023-03-22T06:38:40.633Z,96546.34
2023-03-22T06:41:07.579Z,96547.38
2023-03-22T06:43:34.275Z,96563.44
2023-03-22T06:46:12.464Z,96520.91
2023-03-22T06:48:45.948Z,96536.38
2023-03-22T06:51:15.629Z,96550.41
2023-03-22T06:53:42.733Z,96527.94
2023-03-22T06:56:09.972Z,96547.44
2023-03-22T06:58:47.370Z,96537.44
2023-03-22T07:01:13.961Z,96533.84
2023-03-22T07:03:40.605Z,96540.66
2023-03-22T07:06:13.442Z,96546.63
2023-03-22T07:08:43.140Z,96534.59
2023-03-22T07:11:12.038Z,96537.34
2023-03-22T07:13:38.728Z,96556.44
2023-03-22T07:16:11.197Z,96558.69
2023-03-22T07:18:41.877Z,96536.38
2023-03-22T07:21:09.119Z,96549.03
2023-03-22T07:23:38.356Z,96549.03
2023-03-22T07:26:09.278Z,96545.84
2023-03-22T07:28:41.399Z,96542.97
2023-03-22T07:31:11.746Z,96548.25
2023-03-22T07:33:59.159Z,96553.91
2023-03-22T07:36:28.393Z,96555.75
2023-03-22T07:38:55.369Z,96540.25
2023-03-22T07:41:30.216Z,96544.94
2023-03-22T07:44:22.948Z,96541.00
2023-03-22T07:47:37.813Z,96547.31
2023-03-22T07:50:24.855Z,96552.56
2023-03-22T07:52:55.391Z,96549.75
2023-03-22T07:55:21.819Z,96565.66
2023-03-22T07:57:48.411Z,96541.47
2023-03-22T08:00:15.604Z,96553.34
2023-03-22T08:02:45.394Z,96546.94
2023-03-22T08:05:22.552Z,96538.59
2023-03-22T08:07:56.866Z,96538.81
2023-03-22T08:10:23.478Z,96563.50
2023-03-22T08:12:50.277Z,96539.84
2023-03-22T08:15:22.722Z,96544.69
2023-03-22T08:17:49.906Z,96548.16
2023-03-22T08:20:28.260Z,96530.50
2023-03-22T08:22:59.220Z,96552.88
2023-03-22T08:25:56.556Z,96559.19
2023-03-22T08:28:23.325Z,96554.06
2023-03-22T08:30:51.489Z,96547.94
2023-03-22T08:33:21.193Z,96534.69
2023-03-22T08:35:47.713Z,96544.47
2023-03-22T08:38:14.151Z,96543.81
2023-03-22T08:40:47.476Z,96541.03
2023-03-22T08:43:17.088Z,96534.69
2023-03-22T08:45:43.823Z,96538.84
2023-03-22T08:48:15.438Z,96520.72
2023-03-22T08:51:02.467Z,96521.50
2023-03-22T08:53:47.800Z,96512.78
2023-03-22T08:56:43.461Z,96518.53
2023-03-22T08:59:21.052Z,96516.88
2023-03-22T09:02:10.732Z,96510.81
2023-03-22T09:04:37.361Z,96491.50
2023-03-22T09:07:03.800Z,96523.25
2023-03-22T09:09:30.822Z,96492.53
2023-03-22T09:11:58.128Z,96511.72
2023-03-22T09:14:24.747Z,96510.00
2023-03-22T09:16:52.233Z,96486.38
2023-03-22T09:19:19.053Z,96522.03
2023-03-22T09:21:45.529Z,96527.41
2023-03-22T09:24:19.917Z,96522.50
2023-03-22T09:26:51.528Z,96507.78
2023-03-22T09:29:19.495Z,96482.19
2023-03-22T09:31:48.907Z,96495.75
2023-03-22T09:34:22.463Z,96501.69
2023-03-22T09:36:49.709Z,96505.59
2023-03-22T09:39:20.155Z,96491.31
2023-03-22T09:41:55.493Z,96502.91
2023-03-22T09:44:40.485Z,96494.28
2023-03-22T09:47:18.156Z,96487.75
2023-03-22T09:49:53.908Z,96466.44
2023-03-22T09:52:20.835Z,96467.66
2023-03-22T09:54:47.541Z,96472.47
2023-03-22T09:57:20.353Z,96483.91
2023-03-22T10:00:24.576Z,96476.91
2023-03-22T10:03:05.941Z,96480.78
2023-03-22T10:06:14.018Z,96466.38
2023-03-22T10:09:00.701Z,96466.16
2023-03-22T10:11:46.459Z,96469.28
2023-03-22T10:14:32.195Z,96468.38
2023-03-22T10:17:05.565Z,96475.97
2023-03-22T10:19:46.855Z,96459.16
2023-03-22T10:22:16.172Z,96457.78
2023-03-22T10:24:47.320Z,96457.34
2023-03-22T10:27:17.386Z,96432.38
2023-03-22T10:29:50.961Z,96438.13
2023-03-22T10:32:28.080Z,96451.44
2023-03-22T10:34:54.725Z,96450.22
2023-03-22T10:37:23.278Z,96448.34
2023-03-22T10:39:54.346Z,96428.09
2023-03-22T10:42:23.763Z,96433.78
2023-03-22T10:45:01.728Z,96426.63
2023-03-22T10:47:49.936Z,96429.63
2023-03-22T10:50:30.499Z,96419.41
2023-03-22T10:53:12.360Z,96430.28
2023-03-22T10:55:41.222Z,96432.28
2023-03-22T10:58:19.361Z,96431.00
2023-03-22T11:00:51.776Z,96438.94
2023-03-22T11:03:36.370Z,96395.31
2023-03-22T11:06:06.270Z,96433.78
2023-03-22T11:08:47.539Z,96434.06
2023-03-22T11:11:34.696Z,96423.88
2023-03-22T11:14:13.250Z,96418.34
2023-03-22T11:17:06.108Z,96424.44
2023-03-22T11:19:35.402Z,96417.81
2023-03-22T11:22:06.006Z,96408.88
2023-03-22T11:24:33.974Z,96413.78
2023-03-22T11:27:08.078Z,96407.84
2023-03-22T11:29:46.331Z,96385.28
2023-03-22T11:32:31.167Z,96411.03
2023-03-22T11:35:21.249Z,96406.78
2023-03-22T11:37:53.611Z,96400.78
2023-03-22T11:40:24.047Z,96398.13
2023-03-22T11:43:19.300Z,96397.34
2023-03-22T11:45:48.226Z,96392.31
2023-03-22T11:48:32.634Z,96377.41
2023-03-22T11:51:06.663Z,96394.19
2023-03-22T11:53:37.028Z,96381.72
2023-03-22T11:56:07.479Z,96378.34
2023-03-22T11:58:40.831Z,96381.25
2023-03-22T12:01:21.530Z,96377.03
2023-03-22T12:03:54.805Z,96373.72
2023-03-22T12:06:28.981Z,96369.38
2023-03-22T12:09:00.354Z,96345.66
2023-03-22T12:11:33.490Z,96339.28
2023-03-22T12:14:12.278Z,96352.22
2023-03-22T12:16:52.540Z,96357.06
2023-03-22T12:19:36.911Z,96335.22
2023-03-22T12:22:11.005Z,96338.28
2023-03-22T12:24:37.539Z,96350.06
2023-03-22T12:27:07.616Z,96356.09
2023-03-22T12:29:35.777Z,96336.50
2023-03-22T12:32:08.442Z,96343.44
2023-03-22T12:34:41.329Z,96327.25
2023-03-22T12:37:14.922Z,96345.56
2023-03-22T12:39:51.394Z,96306.47
2023-03-22T12:42:25.743Z,96335.03
2023-03-22T12:45:05.257Z,96329.41
2023-03-22T12:47:41.655Z,96301.19
2023-03-22T12:50:20.443Z,96335.31
2023-03-22T12:52:56.672Z,96333.06
2023-03-22T12:55:28.761Z,96331.03
2023-03-22T12:57:55.868Z,96272.78
2023-03-22T13:00:29.925Z,96324.25
2023-03-22T13:03:02.207Z,96325.06
2023-03-22T13:05:32.594Z,96313.72
2023-03-22T13:08:03.372Z,96294.97
2023-03-22T13:10:29.796Z,96312.41
2023-03-22T13:13:15.838Z,96325.25
2023-03-22T13:16:09.719Z,96314.91
2023-03-22T13:18:36.354Z,96312.06
2023-03-22T13:21:16.508Z,96312.59
2023-03-22T13:24:17.868Z,96296.09
2023-03-22T13:26:47.397Z,96283.81
2023-03-22T13:29:49.010Z,96299.97
2023-03-22T13:32:29.908Z,96284.97
2023-03-22T13:34:57.105Z,96285.28
2023-03-22T13:37:34.980Z,96268.16
2023-03-22T13:40:22.927Z,96291.81
2023-03-22T13:42:50.673Z,96279.75
2023-03-22T13:45:33.446Z,96288.97
2023-03-22T13:48:29.117Z,96275.66
2023-03-22T13:50:58.219Z,96283.94
2023-03-22T13:53:30.518Z,96270.38
2023-03-22T13:55:59.283Z,96280.81
2023-03-22T13:58:36.492Z,96277.88
2023-03-22T14:01:15.863Z,96283.09
2023-03-22T14:03:46.064Z,96268.88
2023-03-22T14:06:21.687Z,96265.09
2023-03-22T14:08:53.300Z,96268.97
2023-03-22T14:11:40.983Z,96258.56
2023-03-22T14:14:15.851Z,96251.09
2023-03-22T14:16:50.672Z,96244.41
2023-03-22T14:19:29.058Z,96256.25
